Time;durP1;ratioP1;P1;durP2;ratioP2;P2;SDS_P1;SDS_P2;PMS_P1;PMS_P2;Temp;Humidity;BMP_temperature;BMP_pressure;BME280_temperature;BME280_humidity;BME280_pressure;Samples;Min_cycle;Max_cycle;Signal;HPM_P1;HPM_P2
2022/11/02 00:01:02;;;;;;;;;;;10.20;99.90;;;;;;5020402;28;19940;-64
2022/11/02 00:03:27;;;;;;;;;;;10.10;99.90;;;;;;5020134;28;19914;-63
2022/11/02 00:05:53;;;;;;;;;;;10.20;99.90;;;;;;5015502;28;19913;-63
2022/11/02 00:08:18;;;;;;;;;;;10.20;99.90;;;;;;5020580;28;20374;-64
2022/11/02 00:10:44;;;;;;;;;;;10.20;99.90;;;;;;5010862;28;19913;-63
2022/11/02 00:13:09;;;;;;;;;;;10.20;99.90;;;;;;5019510;28;19991;-63
2022/11/02 00:15:36;;;;;;;;;;;10.20;99.90;;;;;;5018205;28;19944;-64
2022/11/02 00:18:03;;;;;;;;;;;10.30;99.90;;;;;;5024914;28;19913;-63
2022/11/02 00:20:29;;;;;;;;;;;10.20;99.90;;;;;;5012227;28;19936;-63
2022/11/02 00:22:56;;;;;;;;;;;10.20;99.90;;;;;;5010580;28;20365;-62
2022/11/02 00:25:22;;;;;;;;;;;10.20;99.90;;;;;;5011889;28;19917;-62
2022/11/02 00:27:48;;;;;;;;;;;10.20;99.90;;;;;;5011846;28;19926;-62
2022/11/02 00:30:14;;;;;;;;;;;10.20;99.90;;;;;;5011233;28;19967;-62
2022/11/02 00:32:40;;;;;;;;;;;10.20;99.90;;;;;;5021761;28;19913;-63
2022/11/02 00:35:05;;;;;;;;;;;10.30;99.90;;;;;;5019060;28;19913;-64
2022/11/02 00:37:31;;;;;;;;;;;10.40;99.90;;;;;;5011722;28;20343;-63
2022/11/02 00:39:57;;;;;;;;;;;10.20;99.90;;;;;;5021303;28;19914;-63
2022/11/02 00:42:22;;;;;;;;;;;10.30;99.90;;;;;;5009591;28;19919;-63
2022/11/02 00:44:48;;;;;;;;;;;10.30;99.90;;;;;;5016502;28;20369;-63
2022/11/02 00:47:13;;;;;;;;;;;10.30;99.90;;;;;;5016485;28;20369;-62
2022/11/02 00:49:39;;;;;;;;;;;10.20;99.90;;;;;;5009791;28;19933;-62
2022/11/02 00:52:04;;;;;;;;;;;10.30;99.90;;;;;;5018924;28;19913;-62
2022/11/02 00:54:30;;;;;;;;;;;10.40;99.90;;;;;;5021720;28;19924;-62
2022/11/02 00:56:56;;;;;;;;;;;10.50;99.90;;;;;;5018607;28;20000;-62
2022/11/02 00:59:22;;;;;;;;;;;10.40;99.90;;;;;;5019111;28;19913;-62
2022/11/02 01:01:48;;;;;;;;;;;10.40;99.90;;;;;;5021878;28;19924;-64
2022/11/02 01:04:14;;;;;;;;;;;10.40;99.90;;;;;;5026835;28;19920;-62
2022/11/02 01:06:40;;;;;;;;;;;10.30;99.90;;;;;;5024333;28;20337;-63
2022/11/02 01:09:05;;;;;;;;;;;10.40;99.90;;;;;;5011387;28;19932;-62
2022/11/02 01:11:31;;;;;;;;;;;10.30;99.90;;;;;;5014734;28;19913;-63
2022/11/02 01:13:56;;;;;;;;;;;10.30;99.90;;;;;;5022136;28;19922;-63
2022/11/02 01:16:22;;;;;;;;;;;10.20;99.90;;;;;;5018602;28;20284;-62
2022/11/02 01:18:52;;;;;;;;;;;10.30;99.90;;;;;;5012861;28;20292;-63
2022/11/02 01:21:17;;;;;;;;;;;10.20;99.90;;;;;;5008945;28;19913;-63
2022/11/02 01:23:43;;;;;;;;;;;10.10;99.90;;;;;;5022833;28;20255;-63
2022/11/02 01:26:09;;;;;;;;;;;10.20;99.90;;;;;;5018916;28;19913;-61
2022/11/02 01:28:35;;;;;;;;;;;10.00;99.90;;;;;;5022403;28;20015;-62
2022/11/02 01:31:01;;;;;;;;;;;10.00;99.90;;;;;;5024196;28;19987;-61
2022/11/02 01:33:26;;;;;;;;;;;10.00;99.90;;;;;;5023285;28;19917;-62
2022/11/02 01:35:52;;;;;;;;;;;9.90;99.90;;;;;;5014480;28;19992;-61
2022/11/02 01:38:18;;;;;;;;;;;10.20;99.90;;;;;;5048220;28;20020;-63
2022/11/02 01:40:43;;;;;;;;;;;10.10;99.90;;;;;;5011321;28;19921;-62
2022/11/02 01:43:22;;;;;;;;;;;10.10;99.90;;;;;;5016498;28;19975;-62
2022/11/02 01:45:49;;;;;;;;;;;10.00;99.90;;;;;;5021314;28;19917;-62
2022/11/02 01:48:15;;;;;;;;;;;10.10;99.90;;;;;;5013145;28;20024;-62
2022/11/02 01:50:41;;;;;;;;;;;10.10;99.90;;;;;;5023218;28;19979;-62
2022/11/02 01:53:06;;;;;;;;;;;10.10;99.90;;;;;;5016302;28;19925;-63
2022/11/02 01:55:33;;;;;;;;;;;10.10;99.90;;;;;;5013554;28;19961;-61
2022/11/02 01:58:05;;;;;;;;;;;10.20;99.90;;;;;;5018158;28;19956;-62
2022/11/02 02:00:30;;;;;;;;;;;10.20;99.90;;;;;;5018146;28;19963;-62
2022/11/02 02:03:09;;;;;;;;;;;10.20;99.90;;;;;;5015594;28;19928;-63
2022/11/02 02:05:38;;;;;;;;;;;10.30;99.90;;;;;;5006825;28;19913;-61
2022/11/02 02:08:04;;;;;;;;;;;10.10;99.90;;;;;;5026381;28;19927;-62
2022/11/02 02:10:30;;;;;;;;;;;10.10;99.90;;;;;;5020307;28;20012;-62
2022/11/02 02:12:55;;;;;;;;;;;10.10;99.90;;;;;;5019129;28;19928;-62
2022/11/02 02:15:23;;;;;;;;;;;9.90;99.90;;;;;;5017998;28;19914;-62
2022/11/02 02:17:49;;;;;;;;;;;9.90;99.90;;;;;;5017735;28;19917;-63
2022/11/02 02:20:14;;;;;;;;;;;9.90;99.90;;;;;;5015202;28;19959;-62
2022/11/02 02:22:55;;;;;;;;;;;9.80;99.90;;;;;;5017178;28;20385;-62
2022/11/02 02:25:35;;;;;;;;;;;9.80;99.90;;;;;;5022843;28;19917;-62
2022/11/02 02:28:10;;;;;;;;;;;9.80;99.90;;;;;;5000694;28;20019;-61
2022/11/02 02:30:39;;;;;;;;;;;9.70;99.90;;;;;;5026670;28;19967;-62
2022/11/02 02:33:09;;;;;;;;;;;9.90;99.90;;;;;;5023589;28;19920;-62
2022/11/02 02:35:34;;;;;;;;;;;9.90;99.90;;;;;;5020212;28;19913;-61
2022/11/02 02:38:24;;;;;;;;;;;10.00;99.90;;;;;;5016440;28;19914;-63
2022/11/02 02:40:53;;;;;;;;;;;10.10;99.90;;;;;;5013798;28;20008;-60
2022/11/02 02:43:19;;;;;;;;;;;10.00;99.90;;;;;;5018491;28;20324;-61
2022/11/02 02:46:14;;;;;;;;;;;9.90;99.90;;;;;;5014534;28;19914;-62
2022/11/02 02:48:40;;;;;;;;;;;9.80;99.90;;;;;;5001873;28;19926;-62
2022/11/02 02:51:08;;;;;;;;;;;9.90;99.90;;;;;;5010258;28;19940;-62
2022/11/02 02:54:03;;;;;;;;;;;9.90;99.90;;;;;;5018720;28;19962;-63
2022/11/02 02:56:30;;;;;;;;;;;9.90;99.90;;;;;;5026824;28;19914;-63
2022/11/02 02:59:01;;;;;;;;;;;9.90;99.90;;;;;;5010637;28;19934;-62
2022/11/02 03:01:27;;;;;;;;;;;9.90;99.90;;;;;;5009491;28;20380;-62
2022/11/02 03:03:52;;;;;;;;;;;9.90;99.90;;;;;;5022747;28;19913;-62
2022/11/02 03:06:18;;;;;;;;;;;9.90;99.90;;;;;;5027821;28;20429;-62
2022/11/02 03:08:47;;;;;;;;;;;9.90;99.90;;;;;;5014683;28;19929;-62
2022/11/02 03:11:14;;;;;;;;;;;10.00;99.90;;;;;;5020709;28;19914;-62
2022/11/02 03:13:45;;;;;;;;;;;9.90;99.90;;;;;;5020473;28;20262;-63
2022/11/02 03:16:31;;;;;;;;;;;9.90;99.90;;;;;;5009102;28;19967;-62
2022/11/02 03:19:16;;;;;;;;;;;9.80;99.90;;;;;;5017021;28;20293;-62
2022/11/02 03:21:43;;;;;;;;;;;9.70;99.90;;;;;;5013193;28;19992;-61
2022/11/02 03:24:22;;;;;;;;;;;9.60;99.90;;;;;;5016940;28;19917;-62
2022/11/02 03:26:59;;;;;;;;;;;9.60;99.90;;;;;;5028547;28;20315;-62
2022/11/02 03:29:29;;;;;;;;;;;9.60;99.90;;;;;;5012838;28;20011;-61
2022/11/02 03:31:56;;;;;;;;;;;9.50;99.90;;;;;;5029499;28;19957;-62
2022/11/02 03:34:27;;;;;;;;;;;9.60;99.90;;;;;;5025252;28;19921;-61
2022/11/02 03:36:57;;;;;;;;;;;9.60;99.90;;;;;;5029535;28;19940;-62
2022/11/02 03:39:27;;;;;;;;;;;9.60;99.90;;;;;;5016580;28;19913;-61
2022/11/02 03:41:54;;;;;;;;;;;9.60;99.90;;;;;;5018862;28;19968;-61
2022/11/02 03:44:23;;;;;;;;;;;9.70;99.90;;;;;;5021759;28;19990;-62
2022/11/02 03:46:50;;;;;;;;;;;9.80;99.90;;;;;;5030875;28;19967;-62
2022/11/02 03:49:17;;;;;;;;;;;9.80;99.90;;;;;;5019230;28;20488;-61
2022/11/02 03:51:43;;;;;;;;;;;9.80;99.90;;;;;;5024037;28;19913;-61
2022/11/02 03:54:16;;;;;;;;;;;9.70;99.90;;;;;;5017753;28;20360;-61
2022/11/02 03:56:47;;;;;;;;;;;9.60;99.90;;;;;;5017026;28;19917;-61
2022/11/02 03:59:12;;;;;;;;;;;9.50;99.90;;;;;;5017399;28;20384;-62
2022/11/02 04:01:40;;;;;;;;;;;9.50;99.90;;;;;;5019094;28;20012;-62
2022/11/02 04:04:06;;;;;;;;;;;9.60;99.90;;;;;;5018763;28;20284;-62
2022/11/02 04:06:32;;;;;;;;;;;9.60;99.90;;;;;;5024873;28;19922;-62
2022/11/02 04:08:58;;;;;;;;;;;9.50;99.90;;;;;;5014369;28;20431;-62
2022/11/02 04:19:26;;;;;;;;;;;9.40;99.90;;;;;;4999786;28;19920;-61
2022/11/02 04:19:40;;;;;;;;;;;9.40;99.90;;;;;;5014839;28;19913;-61
2022/11/02 04:27:34;;;;;;;;;;;9.40;99.90;;;;;;5022213;28;19959;-61
2022/11/02 04:30:00;;;;;;;;;;;9.30;99.90;;;;;;5017443;28;19913;-62
2022/11/02 04:35:30;;;;;;;;;;;9.30;99.90;;;;;;4975752;28;19914;-61
2022/11/02 04:40:40;;;;;;;;;;;9.30;99.90;;;;;;4974915;28;19921;-61
2022/11/02 04:43:06;;;;;;;;;;;9.20;99.90;;;;;;4975037;28;19917;-60
2022/11/02 04:45:31;;;;;;;;;;;9.00;99.90;;;;;;4974208;28;20362;-61
2022/11/02 04:48:02;;;;;;;;;;;8.90;99.90;;;;;;4986309;28;19922;-62
2022/11/02 04:50:28;;;;;;;;;;;8.90;99.90;;;;;;4967049;28;20486;-62
2022/11/02 04:52:55;;;;;;;;;;;9.10;99.90;;;;;;4984156;28;19914;-61
2022/11/02 04:55:20;;;;;;;;;;;9.00;99.90;;;;;;4978779;28;20385;-62
2022/11/02 04:57:46;;;;;;;;;;;8.90;99.90;;;;;;4982257;28;19913;-62
2022/11/02 05:00:12;;;;;;;;;;;8.80;99.90;;;;;;4975808;28;20001;-61
2022/11/02 05:02:37;;;;;;;;;;;8.80;99.90;;;;;;4975464;28;20382;-62
2022/11/02 05:05:05;;;;;;;;;;;8.80;99.90;;;;;;4984629;28;20398;-62
2022/11/02 05:07:30;;;;;;;;;;;8.90;99.90;;;;;;5016018;28;20374;-63
2022/11/02 05:09:56;;;;;;;;;;;9.00;99.90;;;;;;5019631;28;19913;-62
2022/11/02 05:12:21;;;;;;;;;;;9.00;99.90;;;;;;5018286;28;20300;-61
2022/11/02 05:14:47;;;;;;;;;;;9.00;99.90;;;;;;5016583;28;20000;-61
2022/11/02 05:17:13;;;;;;;;;;;8.90;99.90;;;;;;5026183;28;20288;-61
2022/11/02 05:19:39;;;;;;;;;;;8.80;99.90;;;;;;5014278;28;19917;-62
2022/11/02 05:22:04;;;;;;;;;;;8.90;99.90;;;;;;5024963;28;19920;-61
2022/11/02 05:24:30;;;;;;;;;;;8.80;99.90;;;;;;5022860;28;19932;-62
2022/11/02 05:26:55;;;;;;;;;;;8.80;99.90;;;;;;5028240;28;19956;-63
2022/11/02 05:29:21;;;;;;;;;;;8.70;99.90;;;;;;5011579;28;20505;-61
2022/11/02 05:31:46;;;;;;;;;;;8.70;99.90;;;;;;5027476;28;19913;-62
2022/11/02 05:34:12;;;;;;;;;;;8.70;99.90;;;;;;5022427;28;19913;-61
2022/11/02 05:36:37;;;;;;;;;;;8.80;99.90;;;;;;5015351;28;20369;-61
2022/11/02 05:39:03;;;;;;;;;;;8.80;99.90;;;;;;5002673;28;19956;-61
2022/11/02 05:41:28;;;;;;;;;;;8.70;99.90;;;;;;5024351;28;19923;-62
2022/11/02 05:43:54;;;;;;;;;;;8.80;99.90;;;;;;5023494;28;19959;-62
2022/11/02 05:46:19;;;;;;;;;;;8.80;99.90;;;;;;5011954;28;19913;-62
2022/11/02 05:48:45;;;;;;;;;;;8.90;99.90;;;;;;5020767;28;19921;-62
2022/11/02 05:51:10;;;;;;;;;;;8.90;99.90;;;;;;5020423;28;20384;-62
2022/11/02 05:53:37;;;;;;;;;;;8.90;99.90;;;;;;5025357;28;19917;-61
2022/11/02 05:56:04;;;;;;;;;;;9.00;99.90;;;;;;5021097;28;19999;-61
2022/11/02 05:58:30;;;;;;;;;;;8.90;99.90;;;;;;5012974;28;19936;-62
2022/11/02 06:01:02;;;;;;;;;;;8.90;99.90;;;;;;5025341;28;20438;-62
2022/11/02 06:03:28;;;;;;;;;;;8.80;99.90;;;;;;5006044;28;19921;-61
2022/11/02 06:05:54;;;;;;;;;;;8.80;99.90;;;;;;5016351;28;19940;-62
2022/11/02 06:08:20;;;;;;;;;;;8.70;99.90;;;;;;5012834;28;19922;-61
2022/11/02 06:10:47;;;;;;;;;;;8.60;99.90;;;;;;5011646;28;20016;-62
2022/11/02 06:13:13;;;;;;;;;;;8.50;99.90;;;;;;5011459;28;19921;-61
2022/11/02 06:15:38;;;;;;;;;;;8.40;99.90;;;;;;5018442;28;19924;-61
2022/11/02 06:18:04;;;;;;;;;;;8.40;99.90;;;;;;5019633;28;19972;-60
2022/11/02 06:20:29;;;;;;;;;;;8.30;99.90;;;;;;5024323;28;20353;-61
2022/11/02 06:22:55;;;;;;;;;;;8.20;99.90;;;;;;5027691;28;19959;-62
2022/11/02 06:25:21;;;;;;;;;;;8.00;99.90;;;;;;5012084;28;20071;-61
2022/11/02 06:27:55;;;;;;;;;;;7.90;99.90;;;;;;5012256;28;19914;-60
2022/11/02 06:30:20;;;;;;;;;;;8.00;99.90;;;;;;5012765;28;19913;-61
2022/11/02 06:32:47;;;;;;;;;;;8.10;99.90;;;;;;5019206;28;19920;-61
2022/11/02 06:35:13;;;;;;;;;;;8.20;99.90;;;;;;5015179;28;19919;-62
2022/11/02 06:37:38;;;;;;;;;;;8.40;99.90;;;;;;5013166;28;19913;-62
2022/11/02 06:40:04;;;;;;;;;;;8.60;99.90;;;;;;5010030;28;20005;-62
2022/11/02 06:42:30;;;;;;;;;;;8.60;99.90;;;;;;5011142;28;19920;-61
2022/11/02 06:45:01;;;;;;;;;;;8.60;99.90;;;;;;5014576;28;19913;-61
2022/11/02 06:47:33;;;;;;;;;;;8.60;99.90;;;;;;5012729;28;19914;-61
2022/11/02 06:49:59;;;;;;;;;;;8.80;99.90;;;;;;5014281;28;19925;-61
2022/11/02 06:52:25;;;;;;;;;;;8.90;99.90;;;;;;5013492;28;19920;-61
2022/11/02 06:54:50;;;;;;;;;;;9.20;99.90;;;;;;5012454;28;19952;-61
2022/11/02 06:57:16;;;;;;;;;;;9.40;99.90;;;;;;5010466;28;19961;-62
2022/11/02 06:59:41;;;;;;;;;;;9.60;99.90;;;;;;5013344;28;19948;-60
2022/11/02 07:02:07;;;;;;;;;;;9.90;99.90;;;;;;5009907;28;19920;-61
2022/11/02 07:04:33;;;;;;;;;;;9.90;99.90;;;;;;5015244;28;19913;-61
2022/11/02 07:06:58;;;;;;;;;;;10.10;99.90;;;;;;5014889;28;19952;-61
2022/11/02 07:09:24;;;;;;;;;;;10.20;99.90;;;;;;5015951;28;20016;-61
2022/11/02 07:11:49;;;;;;;;;;;10.20;99.90;;;;;;5004876;28;19981;-61
2022/11/02 07:14:15;;;;;;;;;;;10.30;99.90;;;;;;5015557;28;19960;-61
2022/11/02 07:16:40;;;;;;;;;;;10.50;99.90;;;;;;5015960;28;19913;-61
2022/11/02 07:19:06;;;;;;;;;;;10.40;99.90;;;;;;5008038;28;19920;-63
2022/11/02 07:21:31;;;;;;;;;;;10.50;99.90;;;;;;5014457;28;19920;-60
2022/11/02 07:23:57;;;;;;;;;;;10.50;99.90;;;;;;5013065;28;19913;-62
2022/11/02 07:26:23;;;;;;;;;;;10.60;99.90;;;;;;5019344;28;20381;-62
2022/11/02 07:28:48;;;;;;;;;;;10.60;99.90;;;;;;5020859;28;20431;-63
2022/11/02 07:31:14;;;;;;;;;;;10.60;99.90;;;;;;5012478;28;19913;-63
2022/11/02 07:33:39;;;;;;;;;;;10.60;99.90;;;;;;5014738;28;20392;-63
2022/11/02 07:36:05;;;;;;;;;;;10.60;99.90;;;;;;5017008;28;19920;-63
2022/11/02 07:38:31;;;;;;;;;;;10.80;99.90;;;;;;5015272;28;20024;-63
2022/11/02 07:40:56;;;;;;;;;;;10.90;99.90;;;;;;5014447;28;19914;-63
2022/11/02 07:43:22;;;;;;;;;;;11.00;99.90;;;;;;5011203;28;19921;-62
2022/11/02 07:45:47;;;;;;;;;;;11.30;99.90;;;;;;5015079;28;19913;-63
2022/11/02 07:48:13;;;;;;;;;;;11.60;99.90;;;;;;5017271;28;19921;-62
2022/11/02 07:50:38;;;;;;;;;;;11.80;99.90;;;;;;5011572;28;20377;-62
2022/11/02 07:53:04;;;;;;;;;;;12.00;99.90;;;;;;5015165;28;19914;-63
2022/11/02 07:55:30;;;;;;;;;;;12.10;99.90;;;;;;5014504;28;19920;-61
2022/11/02 07:57:55;;;;;;;;;;;12.20;99.90;;;;;;5014260;28;19953;-66
2022/11/02 08:00:21;;;;;;;;;;;12.30;99.90;;;;;;5017362;28;19964;-62
2022/11/02 08:02:47;;;;;;;;;;;12.30;99.90;;;;;;5014929;28;19920;-63
2022/11/02 08:05:12;;;;;;;;;;;12.30;99.90;;;;;;5014062;28;19917;-64
2022/11/02 08:07:38;;;;;;;;;;;12.30;99.90;;;;;;5010079;28;19949;-64
2022/11/02 08:10:04;;;;;;;;;;;12.50;99.90;;;;;;5006057;28;19992;-65
2022/11/02 08:12:29;;;;;;;;;;;12.50;99.90;;;;;;5016198;28;19921;-64
2022/11/02 08:14:56;;;;;;;;;;;12.60;99.90;;;;;;5005774;28;20000;-64
2022/11/02 08:17:23;;;;;;;;;;;12.70;99.90;;;;;;5008444;28;20419;-64
2022/11/02 08:19:48;;;;;;;;;;;12.80;99.90;;;;;;5007874;28;19996;-63
2022/11/02 08:22:14;;;;;;;;;;;12.90;99.90;;;;;;5006430;28;20009;-64
2022/11/02 08:24:39;;;;;;;;;;;13.00;99.90;;;;;;5012173;28;19913;-64
2022/11/02 08:27:05;;;;;;;;;;;12.90;99.90;;;;;;5015199;28;19914;-64
2022/11/02 08:29:34;;;;;;;;;;;13.00;99.90;;;;;;5009292;28;19933;-66
2022/11/02 08:31:59;;;;;;;;;;;13.00;99.90;;;;;;5013550;28;19917;-64
2022/11/02 08:34:25;;;;;;;;;;;13.00;99.90;;;;;;5011883;28;19920;-65
2022/11/02 08:36:51;;;;;;;;;;;13.00;99.90;;;;;;5012375;28;19920;-65
2022/11/02 08:39:16;;;;;;;;;;;13.00;99.90;;;;;;5013522;28;19922;-65
2022/11/02 08:41:42;;;;;;;;;;;13.20;99.90;;;;;;5017720;28;19913;-65
2022/11/02 08:44:08;;;;;;;;;;;13.20;99.90;;;;;;5021658;28;19920;-65
2022/11/02 08:46:33;;;;;;;;;;;13.30;99.90;;;;;;5015376;28;19913;-65
2022/11/02 08:48:59;;;;;;;;;;;13.40;99.90;;;;;;5016572;28;19971;-64
2022/11/02 08:51:24;;;;;;;;;;;13.60;99.90;;;;;;5011090;28;19921;-64
2022/11/02 08:53:50;;;;;;;;;;;13.70;99.90;;;;;;5012730;28;20277;-66
2022/11/02 08:56:16;;;;;;;;;;;13.80;99.90;;;;;;5009328;28;20385;-65
2022/11/02 08:58:41;;;;;;;;;;;13.80;99.90;;;;;;5005687;28;20373;-64
2022/11/02 09:01:07;;;;;;;;;;;13.80;99.90;;;;;;5004356;28;20336;-65
2022/11/02 09:03:32;;;;;;;;;;;13.70;99.90;;;;;;5011171;28;20387;-65
2022/11/02 09:05:59;;;;;;;;;;;13.70;99.90;;;;;;5010037;28;19913;-65
2022/11/02 09:08:26;;;;;;;;;;;13.80;99.90;;;;;;5009573;28;20444;-65
2022/11/02 09:10:52;;;;;;;;;;;13.80;99.90;;;;;;5009701;28;19920;-65
2022/11/02 09:13:23;;;;;;;;;;;13.80;99.90;;;;;;5010629;28;20293;-66
2022/11/02 09:15:49;;;;;;;;;;;13.80;99.90;;;;;;5014539;28;19920;-65
2022/11/02 09:18:15;;;;;;;;;;;13.80;99.90;;;;;;5010078;28;19913;-65
2022/11/02 09:20:40;;;;;;;;;;;13.80;99.90;;;;;;5009287;28;20288;-65
2022/11/02 09:23:06;;;;;;;;;;;13.80;99.90;;;;;;5020647;28;20004;-63
2022/11/02 09:25:32;;;;;;;;;;;13.80;99.90;;;;;;5010492;28;20303;-64
2022/11/02 09:27:57;;;;;;;;;;;13.90;99.90;;;;;;5010298;28;19925;-64
2022/11/02 09:30:24;;;;;;;;;;;14.00;99.90;;;;;;5007623;28;20849;-65
2022/11/02 09:33:00;;;;;;;;;;;14.10;99.90;;;;;;5007654;28;20388;-66
2022/11/02 09:35:28;;;;;;;;;;;14.20;99.90;;;;;;5013248;28;20428;-64
2022/11/02 09:37:53;;;;;;;;;;;14.40;99.90;;;;;;5014014;28;19919;-62
2022/11/02 09:40:20;;;;;;;;;;;14.60;99.90;;;;;;5007057;28;20339;-64
2022/11/02 09:42:57;;;;;;;;;;;14.70;99.90;;;;;;5014930;28;21220;-64
2022/11/02 09:45:23;;;;;;;;;;;14.70;99.90;;;;;;5005959;28;20595;-63
2022/11/02 09:47:55;;;;;;;;;;;14.60;99.90;;;;;;5008000;28;19913;-63
2022/11/02 09:50:22;;;;;;;;;;;14.60;99.90;;;;;;5008592;28;19914;-64
2022/11/02 09:52:55;;;;;;;;;;;14.50;99.90;;;;;;5009983;28;19933;-63
2022/11/02 09:55:26;;;;;;;;;;;14.30;99.90;;;;;;5006541;28;19967;-62
2022/11/02 09:57:55;;;;;;;;;;;14.10;99.90;;;;;;5012298;28;19951;-62
2022/11/02 10:00:20;;;;;;;;;;;14.00;99.90;;;;;;5012865;28;19920;-63
2022/11/02 10:02:51;;;;;;;;;;;14.10;99.90;;;;;;5008857;28;19913;-63
2022/11/02 10:05:26;;;;;;;;;;;14.20;99.90;;;;;;4999070;28;19920;-63
2022/11/02 10:07:54;;;;;;;;;;;14.30;99.90;;;;;;5015412;28;20385;-64
2022/11/02 10:10:32;;;;;;;;;;;14.50;99.90;;;;;;5014212;28;20011;-64
2022/11/02 10:13:00;;;;;;;;;;;14.60;99.90;;;;;;4995862;28;19922;-64
2022/11/02 10:15:30;;;;;;;;;;;14.70;99.90;;;;;;5009242;28;19918;-63
2022/11/02 10:17:57;;;;;;;;;;;14.70;99.90;;;;;;5010504;28;20023;-63
2022/11/02 10:20:29;;;;;;;;;;;14.80;99.90;;;;;;5010881;28;20294;-63
2022/11/02 10:22:58;;;;;;;;;;;14.80;99.90;;;;;;5012166;28;20385;-63
2022/11/02 10:25:24;;;;;;;;;;;14.80;99.90;;;;;;5011922;28;20364;-63
2022/11/02 10:27:52;;;;;;;;;;;14.80;99.90;;;;;;5013645;28;19993;-62
2022/11/02 10:30:19;;;;;;;;;;;14.80;99.90;;;;;;5012338;28;20003;-63
2022/11/02 10:32:47;;;;;;;;;;;14.80;99.90;;;;;;5015006;28;19918;-63
2022/11/02 10:35:36;;;;;;;;;;;14.70;99.90;;;;;;5014131;28;19914;-63
2022/11/02 10:38:07;;;;;;;;;;;14.80;99.90;;;;;;5018004;28;20332;-64
2022/11/02 10:40:48;;;;;;;;;;;14.80;99.90;;;;;;5015117;28;19913;-62
2022/11/02 10:43:13;;;;;;;;;;;14.80;99.90;;;;;;5009322;28;19928;-62
2022/11/02 10:45:56;;;;;;;;;;;14.80;99.90;;;;;;5012925;28;19913;-64
2022/11/02 10:48:22;;;;;;;;;;;14.90;99.90;;;;;;5014625;28;20011;-63
2022/11/02 10:50:55;;;;;;;;;;;15.00;99.90;;;;;;5016304;28;19965;-63
2022/11/02 10:53:21;;;;;;;;;;;15.00;99.90;;;;;;5016596;28;20005;-60
2022/11/02 10:55:56;;;;;;;;;;;15.10;99.90;;;;;;5012599;28;19924;-64
2022/11/02 10:58:23;;;;;;;;;;;15.10;99.90;;;;;;5013560;28;20007;-62
2022/11/02 11:00:50;;;;;;;;;;;15.20;99.90;;;;;;5017919;28;20377;-63
2022/11/02 11:03:16;;;;;;;;;;;15.40;99.90;;;;;;5009147;28;20358;-63
2022/11/02 11:05:48;;;;;;;;;;;15.70;99.90;;;;;;5023545;28;19921;-62
2022/11/02 11:08:32;;;;;;;;;;;16.00;99.90;;;;;;5019890;28;19922;-64
2022/11/02 11:11:12;;;;;;;;;;;16.00;99.90;;;;;;5017059;28;19925;-62
2022/11/02 11:13:39;;;;;;;;;;;16.10;99.90;;;;;;5014698;28;19921;-63
2022/11/02 11:16:05;;;;;;;;;;;16.20;99.90;;;;;;5017300;28;19914;-63
2022/11/02 11:18:30;;;;;;;;;;;16.10;99.90;;;;;;5004157;28;19933;-63
2022/11/02 11:20:56;;;;;;;;;;;16.50;99.90;;;;;;5010104;28;20008;-63
2022/11/02 11:23:21;;;;;;;;;;;16.20;99.90;;;;;;5015890;28;19914;-63
2022/11/02 11:25:59;;;;;;;;;;;16.30;99.90;;;;;;5012232;28;19917;-63
2022/11/02 11:28:25;;;;;;;;;;;16.50;99.90;;;;;;5011883;28;19921;-62
2022/11/02 11:31:02;;;;;;;;;;;16.50;99.90;;;;;;5011436;28;19921;-62
2022/11/02 11:33:29;;;;;;;;;;;16.40;99.90;;;;;;5012793;28;19936;-62
2022/11/02 11:35:54;;;;;;;;;;;16.50;99.90;;;;;;5016588;28;19921;-62
2022/11/02 11:38:21;;;;;;;;;;;16.60;99.90;;;;;;5012431;28;19914;-62
2022/11/02 11:40:52;;;;;;;;;;;16.60;99.90;;;;;;5010972;28;19975;-62
2022/11/02 11:43:19;;;;;;;;;;;16.60;99.90;;;;;;5009745;28;19917;-62
2022/11/02 11:45:58;;;;;;;;;;;16.50;99.90;;;;;;5012552;28;19917;-63
2022/11/02 11:48:38;;;;;;;;;;;16.50;99.90;;;;;;5013914;28;20347;-62
2022/11/02 11:51:07;;;;;;;;;;;16.30;99.90;;;;;;5016397;28;19925;-63
2022/11/02 11:53:34;;;;;;;;;;;16.40;99.90;;;;;;5007946;28;19913;-65
2022/11/02 11:55:59;;;;;;;;;;;16.40;99.90;;;;;;5010619;28;20269;-63
2022/11/02 11:58:26;;;;;;;;;;;16.50;99.90;;;;;;5016921;28;19939;-63
2022/11/02 12:01:10;;;;;;;;;;;16.60;99.90;;;;;;5020859;28;19956;-62
2022/11/02 12:03:52;;;;;;;;;;;17.10;99.90;;;;;;5018614;28;19914;-62
2022/11/02 12:06:21;;;;;;;;;;;17.40;99.90;;;;;;5017882;28;19992;-62
2022/11/02 12:08:52;;;;;;;;;;;17.40;99.90;;;;;;5010220;28;19975;-63
2022/11/02 12:11:18;;;;;;;;;;;17.40;99.90;;;;;;5016052;28;19917;-63
2022/11/02 12:13:49;;;;;;;;;;;17.50;99.90;;;;;;5015183;28;19921;-63
2022/11/02 12:16:18;;;;;;;;;;;17.50;99.90;;;;;;5014789;28;19913;-63
2022/11/02 12:18:43;;;;;;;;;;;17.10;99.90;;;;;;5011713;28;19965;-63
2022/11/02 12:21:27;;;;;;;;;;;16.90;99.90;;;;;;5021402;28;19917;-63
2022/11/02 12:24:02;;;;;;;;;;;16.70;99.90;;;;;;5018008;28;19939;-63
2022/11/02 12:26:36;;;;;;;;;;;16.90;99.90;;;;;;5010265;28;20011;-62
2022/11/02 12:29:20;;;;;;;;;;;17.00;99.90;;;;;;5008760;28;20298;-63
2022/11/02 12:31:52;;;;;;;;;;;16.80;99.90;;;;;;5015400;28;20350;-62
2022/11/02 12:34:23;;;;;;;;;;;16.70;99.90;;;;;;5010548;28;20000;-62
2022/11/02 12:36:49;;;;;;;;;;;16.60;99.90;;;;;;5007512;28;19918;-63
2022/11/02 12:39:29;;;;;;;;;;;16.40;99.90;;;;;;5015039;28;19975;-63
2022/11/02 12:42:04;;;;;;;;;;;16.50;99.90;;;;;;5010111;28;19960;-62
2022/11/02 12:44:45;;;;;;;;;;;16.40;99.90;;;;;;5010273;28;19968;-62
2022/11/02 12:47:20;;;;;;;;;;;16.30;99.90;;;;;;5012380;28;20020;-62
2022/11/02 12:49:59;;;;;;;;;;;16.30;99.90;;;;;;5009382;28;20004;-61
2022/11/02 12:52:43;;;;;;;;;;;16.10;99.90;;;;;;5011518;28;19964;-62
2022/11/02 12:55:14;;;;;;;;;;;15.90;99.90;;;;;;5016546;28;20369;-61
2022/11/02 12:57:40;;;;;;;;;;;15.90;99.90;;;;;;5019336;28;19917;-62
2022/11/02 13:00:14;;;;;;;;;;;15.90;99.90;;;;;;5017170;28;20400;-61
2022/11/02 13:02:49;;;;;;;;;;;16.00;99.90;;;;;;5012117;28;20281;-63
2022/11/02 13:05:23;;;;;;;;;;;16.10;99.90;;;;;;5012858;28;20381;-61
2022/11/02 13:07:54;;;;;;;;;;;15.90;99.90;;;;;;5014445;28;19961;-62
2022/11/02 13:10:29;;;;;;;;;;;16.00;99.90;;;;;;5002007;28;19939;-61
2022/11/02 13:12:57;;;;;;;;;;;16.10;99.90;;;;;;5013750;28;19928;-61
2022/11/02 13:15:24;;;;;;;;;;;16.10;99.90;;;;;;5017420;28;20000;-61
2022/11/02 13:17:58;;;;;;;;;;;16.10;99.90;;;;;;5014866;28;19917;-63
2022/11/02 13:20:34;;;;;;;;;;;15.90;99.90;;;;;;5011074;28;19914;-62
2022/11/02 13:23:01;;;;;;;;;;;15.70;99.90;;;;;;5013866;28;20643;-62
2022/11/02 13:25:31;;;;;;;;;;;15.60;99.90;;;;;;5011335;28;20280;-62
2022/11/02 13:27:59;;;;;;;;;;;15.60;99.90;;;;;;5013905;28;20358;-62
2022/11/02 13:30:25;;;;;;;;;;;15.60;99.90;;;;;;5008011;28;19917;-62
2022/11/02 13:32:57;;;;;;;;;;;15.70;99.90;;;;;;5011176;28;19960;-62
2022/11/02 13:35:26;;;;;;;;;;;15.60;99.90;;;;;;5013112;28;19914;-61
2022/11/02 13:37:53;;;;;;;;;;;15.60;99.90;;;;;;5020471;28;19913;-61
2022/11/02 13:40:24;;;;;;;;;;;15.60;99.90;;;;;;5008040;28;20341;-62
2022/11/02 13:42:50;;;;;;;;;;;15.50;99.90;;;;;;5008422;28;19917;-61
2022/11/02 13:45:18;;;;;;;;;;;15.50;99.90;;;;;;5008249;28;19920;-61
2022/11/02 13:47:56;;;;;;;;;;;15.50;99.90;;;;;;5013842;28;19917;-61
2022/11/02 13:50:23;;;;;;;;;;;15.50;99.90;;;;;;5015563;28;19956;-61
2022/11/02 13:52:51;;;;;;;;;;;15.50;99.90;;;;;;5014193;28;19918;-61
2022/11/02 13:55:19;;;;;;;;;;;15.50;99.90;;;;;;5016824;28;19913;-61
2022/11/02 13:57:51;;;;;;;;;;;15.40;99.90;;;;;;5018027;28;20510;-63
2022/11/02 14:00:22;;;;;;;;;;;15.30;99.90;;;;;;5009252;28;20288;-60
2022/11/02 14:02:49;;;;;;;;;;;15.30;99.90;;;;;;5011896;28;19921;-62
2022/11/02 14:05:24;;;;;;;;;;;15.30;99.90;;;;;;5017564;28;19936;-62
2022/11/02 14:07:50;;;;;;;;;;;15.20;99.90;;;;;;5005319;28;19914;-61
2022/11/02 14:10:16;;;;;;;;;;;15.30;99.90;;;;;;5018478;28;19913;-62
2022/11/02 14:12:43;;;;;;;;;;;15.20;99.90;;;;;;5015215;28;20426;-61
2022/11/02 14:15:12;;;;;;;;;;;15.20;99.90;;;;;;5018372;28;20008;-61
2022/11/02 14:17:53;;;;;;;;;;;15.30;99.90;;;;;;5013404;28;19943;-61
2022/11/02 14:20:34;;;;;;;;;;;15.30;99.90;;;;;;5011108;28;19924;-63
2022/11/02 14:23:08;;;;;;;;;;;15.20;99.90;;;;;;5012390;28;19913;-62
2022/11/02 14:25:47;;;;;;;;;;;15.20;99.90;;;;;;5016569;28;19913;-61
2022/11/02 14:28:22;;;;;;;;;;;15.20;99.90;;;;;;5013803;28;19921;-62
2022/11/02 14:30:51;;;;;;;;;;;15.20;99.90;;;;;;5014493;28;20063;-62
2022/11/02 14:33:27;;;;;;;;;;;15.20;99.90;;;;;;5014859;28;19913;-62
2022/11/02 14:36:00;;;;;;;;;;;15.30;99.90;;;;;;5014395;28;20297;-62
2022/11/02 14:38:38;;;;;;;;;;;15.30;99.90;;;;;;5014778;28;19940;-62
2022/11/02 14:41:12;;;;;;;;;;;15.60;99.90;;;;;;5007416;28;19937;-60
2022/11/02 14:43:37;;;;;;;;;;;15.60;99.90;;;;;;5018324;28;19921;-63
2022/11/02 14:46:21;;;;;;;;;;;15.50;99.90;;;;;;5013811;28;19913;-62